createdAt,value
2019-01-24T00:01:22.628Z,-2.50
2019-01-24T00:03:51.197Z,-2.50
2019-01-24T00:06:19.857Z,-2.50
2019-01-24T00:08:48.396Z,-2.50
2019-01-24T00:11:16.888Z,-2.50
2019-01-24T00:13:45.456Z,-2.50
2019-01-24T00:16:13.982Z,-2.60
2019-01-24T00:18:42.522Z,-2.60
2019-01-24T00:21:11.082Z,-2.60
2019-01-24T00:23:39.644Z,-2.50
2019-01-24T00:26:08.231Z,-2.50
2019-01-24T00:28:36.787Z,-2.50
2019-01-24T00:31:05.302Z,-2.50
2019-01-24T00:33:33.882Z,-2.50
2019-01-24T00:36:02.495Z,-2.40
2019-01-24T00:38:31.009Z,-2.40
2019-01-24T00:40:59.561Z,-2.40
2019-01-24T00:43:34.043Z,-2.40
2019-01-24T00:46:05.634Z,-2.40
2019-01-24T00:48:34.182Z,-2.40
2019-01-24T00:51:04.324Z,-2.40
2019-01-24T00:53:35.289Z,-2.40
2019-01-24T00:56:03.834Z,-2.40
2019-01-24T00:58:32.407Z,-2.40
2019-01-24T01:01:01.053Z,-2.30
2019-01-24T01:03:29.586Z,-2.40
2019-01-24T01:05:58.145Z,-2.40
2019-01-24T01:08:26.779Z,-2.40
2019-01-24T01:10:55.362Z,-2.40
2019-01-24T01:13:23.984Z,-2.30
2019-01-24T01:15:52.611Z,-2.30
2019-01-24T01:18:21.249Z,-2.30
2019-01-24T01:20:49.877Z,-2.30
2019-01-24T01:23:18.423Z,-2.30
2019-01-24T01:25:46.988Z,-2.30
2019-01-24T01:28:16.505Z,-2.30
2019-01-24T01:30:45.093Z,-2.30
2019-01-24T01:33:21.361Z,-2.30
2019-01-24T01:35:45.620Z,-2.30
2019-01-24T01:38:14.108Z,-2.30
2019-01-24T01:40:42.668Z,-2.40
2019-01-24T01:43:11.238Z,-2.40
2019-01-24T01:45:39.857Z,-2.40
2019-01-24T01:48:08.409Z,-2.30
2019-01-24T01:50:37.065Z,-2.30
2019-01-24T01:53:05.766Z,-2.30
2019-01-24T01:55:34.399Z,-2.40
2019-01-24T01:58:05.328Z,-2.30
2019-01-24T02:00:36.290Z,-2.40
2019-01-24T02:03:05.107Z,-2.30
2019-01-24T02:05:33.667Z,-2.30
2019-01-24T02:08:02.249Z,-2.40
2019-01-24T02:10:32.407Z,-2.40
2019-01-24T02:13:03.617Z,-2.40
2019-01-24T02:15:32.275Z,-2.40
2019-01-24T02:18:03.370Z,-2.30
2019-01-24T02:20:32.034Z,-2.30
2019-01-24T02:23:00.738Z,-2.30
2019-01-24T02:25:29.428Z,-2.30
2019-01-24T02:27:58.002Z,-2.20
2019-01-24T02:30:33.414Z,-2.20
2019-01-24T02:33:04.880Z,-2.20
2019-01-24T02:35:33.490Z,-2.10
2019-01-24T02:38:02.046Z,-2.10
2019-01-24T02:40:46.973Z,-2.10
2019-01-24T02:43:15.578Z,-2.10
2019-01-24T02:45:44.168Z,-2.10
2019-01-24T02:48:12.730Z,-2.10
2019-01-24T02:50:41.230Z,-2.10
2019-01-24T02:53:10.101Z,-2.10
2019-01-24T02:55:38.657Z,-2.10
2019-01-24T02:58:07.225Z,-2.10
2019-01-24T03:00:35.952Z,-2.10
2019-01-24T03:03:04.698Z,-2.10
2019-01-24T03:05:36.118Z,-2.10
2019-01-24T03:08:04.854Z,-2.10
2019-01-24T03:10:33.400Z,-2.00
2019-01-24T03:13:01.969Z,-2.00
2019-01-24T03:15:33.206Z,-2.00
2019-01-24T03:18:01.866Z,-2.00
2019-01-24T03:20:39.086Z,-2.00
2019-01-24T03:23:07.680Z,-2.00
2019-01-24T03:25:36.285Z,-2.00
2019-01-24T03:28:05.604Z,-2.00
2019-01-24T03:30:34.257Z,-2.00
2019-01-24T03:33:02.797Z,-2.00
2019-01-24T03:35:31.462Z,-2.00
2019-01-24T03:38:07.047Z,-2.10
2019-01-24T03:40:35.631Z,-2.00
2019-01-24T03:43:04.334Z,-2.10
2019-01-24T03:45:32.948Z,-2.00
2019-01-24T03:48:01.531Z,-2.00
2019-01-24T03:50:35.603Z,-2.00
2019-01-24T03:53:04.296Z,-2.00
2019-01-24T03:55:32.793Z,-2.00
2019-01-24T03:58:01.429Z,-2.00
2019-01-24T04:00:30.091Z,-2.00
2019-01-24T04:02:58.645Z,-2.00
2019-01-24T04:05:27.234Z,-2.10
2019-01-24T04:07:56.127Z,-2.00
2019-01-24T04:10:24.685Z,-2.00
2019-01-24T04:12:53.337Z,-2.00
2019-01-24T04:15:25.494Z,-2.00
2019-01-24T04:17:54.300Z,-2.00
2019-01-24T04:20:24.493Z,-2.00
2019-01-24T04:22:53.130Z,-1.90
2019-01-24T04:25:21.711Z,-1.90
2019-01-24T04:27:50.356Z,-1.90
2019-01-24T04:30:20.747Z,-1.90
2019-01-24T04:32:49.663Z,-1.90
2019-01-24T04:35:19.965Z,-1.80
2019-01-24T04:37:48.979Z,-1.80
2019-01-24T04:40:19.591Z,-1.80
2019-01-24T04:42:48.288Z,-1.80
2019-01-24T04:45:18.196Z,-1.80
2019-01-24T04:47:49.297Z,-1.80
2019-01-24T04:50:18.607Z,-1.80
2019-01-24T04:52:50.233Z,-1.80
2019-01-24T04:55:19.592Z,-1.80
2019-01-24T04:57:48.453Z,-1.80
2019-01-24T05:00:28.213Z,-1.80
2019-01-24T05:02:56.835Z,-1.80
2019-01-24T05:05:28.035Z,-1.80
2019-01-24T05:07:56.239Z,-1.80
2019-01-24T05:10:27.274Z,-1.70
2019-01-24T05:12:55.918Z,-1.80
2019-01-24T05:15:24.609Z,-1.80
2019-01-24T05:17:53.171Z,-1.80
2019-01-24T05:20:21.748Z,-1.80
2019-01-24T05:22:50.674Z,-1.80
2019-01-24T05:25:19.970Z,-1.80
2019-01-24T05:27:48.587Z,-1.80
2019-01-24T05:30:22.711Z,-1.90
2019-01-24T05:32:51.338Z,-1.90
2019-01-24T05:35:19.929Z,-1.90
2019-01-24T05:37:48.575Z,-1.90
2019-01-24T05:40:20.021Z,-1.90
2019-01-24T05:42:51.351Z,-1.90
2019-01-24T05:45:26.414Z,-1.90
2019-01-24T05:47:57.965Z,-1.90
2019-01-24T05:50:26.819Z,-1.90
2019-01-24T05:52:57.014Z,-1.80
2019-01-24T05:55:25.585Z,-1.80
2019-01-24T05:57:56.760Z,-1.80
2019-01-24T06:00:29.855Z,-1.80
2019-01-24T06:02:58.454Z,-1.80
2019-01-24T06:05:29.580Z,-1.80
2019-01-24T06:07:58.153Z,-1.80
2019-01-24T06:10:27.447Z,-1.80
2019-01-24T06:12:56.009Z,-1.80
2019-01-24T06:15:24.600Z,-1.80
2019-01-24T06:17:53.084Z,-1.80
2019-01-24T06:20:21.771Z,-1.70
2019-01-24T06:22:50.319Z,-1.80
2019-01-24T06:25:23.124Z,-1.80
2019-01-24T06:27:51.650Z,-1.80
2019-01-24T06:30:22.173Z,-1.80
2019-01-24T06:32:50.985Z,-1.80
2019-01-24T06:35:19.752Z,-1.80
2019-01-24T06:37:49.894Z,-1.80
2019-01-24T06:40:21.522Z,-1.80
2019-01-24T06:42:51.624Z,-1.80
2019-01-24T06:45:23.834Z,-1.80
2019-01-24T06:47:52.381Z,-1.80
2019-01-24T06:50:21.110Z,-1.80
2019-01-24T06:52:49.820Z,-1.80
2019-01-24T06:55:21.482Z,-1.80
2019-01-24T06:57:51.668Z,-1.80
2019-01-24T07:00:23.432Z,-1.80
2019-01-24T07:02:52.136Z,-1.80
2019-01-24T07:05:26.891Z,-1.80
2019-01-24T07:07:51.080Z,-1.80
2019-01-24T07:10:21.582Z,-1.80
2019-01-24T07:12:53.150Z,-1.80
2019-01-24T07:15:23.311Z,-1.80
2019-01-24T07:17:53.353Z,-1.80
2019-01-24T07:20:22.223Z,-1.80
2019-01-24T07:22:53.352Z,-1.80
2019-01-24T07:25:24.626Z,-1.80
2019-01-24T07:27:53.177Z,-1.80
2019-01-24T07:30:41.133Z,-1.70
2019-01-24T07:33:09.703Z,-1.70
2019-01-24T07:35:38.261Z,-1.70
2019-01-24T07:38:07.150Z,-1.70
2019-01-24T07:40:35.727Z,-1.70
2019-01-24T07:43:04.448Z,-1.70
2019-01-24T07:45:35.846Z,-1.70
2019-01-24T07:48:04.794Z,-1.70
2019-01-24T07:50:33.453Z,-1.70
2019-01-24T07:53:02.142Z,-1.60
2019-01-24T07:55:33.538Z,-1.60
2019-01-24T07:58:02.194Z,-1.60
2019-01-24T08:00:31.114Z,-1.60
2019-01-24T08:02:59.741Z,-1.60
2019-01-24T08:05:30.546Z,-1.60
2019-01-24T08:07:59.172Z,-1.60
2019-01-24T08:10:27.733Z,-1.60
2019-01-24T08:12:56.333Z,-1.60
2019-01-24T08:15:25.232Z,-1.60
2019-01-24T08:17:53.964Z,-1.60
2019-01-24T08:20:24.945Z,-1.60
2019-01-24T08:22:59.302Z,-1.60
2019-01-24T08:25:27.888Z,-1.60
2019-01-24T08:27:56.450Z,-1.50
2019-01-24T08:30:30.532Z,-1.50
2019-01-24T08:32:59.180Z,-1.50
2019-01-24T08:35:35.224Z,-1.50
2019-01-24T08:38:04.247Z,-1.50
2019-01-24T08:40:32.752Z,-1.40
2019-01-24T08:43:01.450Z,-1.30
2019-01-24T08:45:30.110Z,-1.30
2019-01-24T08:47:59.245Z,-1.20
2019-01-24T08:50:30.487Z,-1.20
2019-01-24T08:52:59.284Z,-1.10
2019-01-24T08:55:36.325Z,-1.10
2019-01-24T08:58:05.440Z,-1.10
2019-01-24T09:00:34.133Z,-1.10
2019-01-24T09:03:03.246Z,-1.10
2019-01-24T09:05:31.831Z,-1.10
2019-01-24T09:08:00.391Z,-1.00
2019-01-24T09:10:31.690Z,-1.00
2019-01-24T09:13:00.429Z,-1.00
2019-01-24T09:15:29.398Z,-1.00
2019-01-24T09:17:57.977Z,-1.00
2019-01-24T09:20:28.143Z,-0.90
2019-01-24T09:22:56.754Z,-1.00
2019-01-24T09:25:27.039Z,-0.90
2019-01-24T09:27:55.653Z,-1.00
2019-01-24T09:30:26.813Z,-0.90
2019-01-24T09:32:55.490Z,-0.90
2019-01-24T09:35:24.675Z,-0.90
2019-01-24T09:37:53.297Z,-0.90
2019-01-24T09:40:24.962Z,-0.90
2019-01-24T09:42:53.591Z,-0.90
2019-01-24T09:45:24.455Z,-0.80
2019-01-24T09:47:55.058Z,-0.80
2019-01-24T09:50:25.379Z,-0.80
2019-01-24T09:52:54.100Z,-0.90
2019-01-24T09:55:22.835Z,-0.90
2019-01-24T09:57:51.529Z,-0.90
2019-01-24T10:00:25.472Z,-0.90
2019-01-24T10:02:54.189Z,-0.80
2019-01-24T10:05:22.891Z,-0.80
2019-01-24T10:07:54.325Z,-0.70
2019-01-24T10:11:00.537Z,-0.80
2019-01-24T10:13:08.512Z,-0.80
2019-01-24T10:15:43.032Z,-0.70
2019-01-24T10:18:11.646Z,-0.70
2019-01-24T10:20:40.201Z,-0.70
2019-01-24T10:23:12.666Z,-0.70
2019-01-24T10:25:44.440Z,-0.70
2019-01-24T10:28:19.389Z,-0.60
2019-01-24T10:30:50.255Z,-0.60
2019-01-24T10:33:21.764Z,-0.50
2019-01-24T10:35:50.283Z,-0.50
2019-01-24T10:38:19.141Z,-0.50
2019-01-24T10:40:50.384Z,-0.50
2019-01-24T10:43:18.886Z,-0.60
2019-01-24T10:45:47.485Z,-0.50
2019-01-24T10:48:16.046Z,-0.50
2019-01-24T10:50:44.612Z,-0.50
2019-01-24T10:53:13.289Z,-0.50
2019-01-24T10:55:41.891Z,-0.50
2019-01-24T10:58:10.531Z,-0.40
2019-01-24T11:00:42.711Z,-0.40
2019-01-24T11:03:12.874Z,-0.40
2019-01-24T11:05:47.650Z,-0.40
2019-01-24T11:08:16.380Z,-0.40
2019-01-24T11:10:44.950Z,-0.50
2019-01-24T11:13:13.599Z,-0.50
2019-01-24T11:15:42.332Z,-0.60
2019-01-24T11:18:10.988Z,-0.60
2019-01-24T11:20:39.722Z,-0.60
2019-01-24T11:23:08.418Z,-0.60
2019-01-24T11:25:37.082Z,-0.50
2019-01-24T11:28:08.829Z,-0.50
2019-01-24T11:30:39.866Z,-0.60
2019-01-24T11:33:08.889Z,-0.60
2019-01-24T11:35:37.808Z,-0.50
2019-01-24T11:38:07.255Z,-0.50
2019-01-24T11:40:36.291Z,-0.50
2019-01-24T11:43:10.409Z,-0.60
2019-01-24T11:45:40.932Z,-0.50
2019-01-24T11:48:09.545Z,-0.60
2019-01-24T11:50:38.068Z,-0.70
2019-01-24T11:53:06.757Z,-0.80
2019-01-24T11:55:35.306Z,-0.80
2019-01-24T11:58:07.280Z,-0.80
2019-01-24T12:00:39.324Z,-0.80
2019-01-24T12:03:08.126Z,-0.80
2019-01-24T12:05:36.679Z,-0.70
2019-01-24T12:08:05.873Z,-0.60
2019-01-24T12:10:34.458Z,-0.60
2019-01-24T12:13:05.484Z,-0.60
2019-01-24T12:15:34.010Z,-0.60
2019-01-24T12:18:02.668Z,-0.60
2019-01-24T12:20:33.796Z,-0.60
2019-01-24T12:23:02.358Z,-0.50
2019-01-24T12:25:30.979Z,-0.60
2019-01-24T12:28:01.170Z,-0.60
2019-01-24T12:30:34.352Z,-0.60
2019-01-24T12:33:04.279Z,-0.60
2019-01-24T12:35:39.912Z,-0.50
2019-01-24T12:38:11.980Z,-0.40
2019-01-24T12:40:45.681Z,-0.30
2019-01-24T12:43:14.269Z,-0.20
2019-01-24T12:45:42.828Z,-0.10
2019-01-24T12:48:11.460Z,0.00
2019-01-24T12:50:40.073Z,0.10
2019-01-24T12:53:08.846Z,0.50
2019-01-24T12:55:37.469Z,0.10
2019-01-24T12:58:08.371Z,0.20
2019-01-24T13:00:39.677Z,0.20
2019-01-24T13:03:09.874Z,0.20
2019-01-24T13:05:41.348Z,0.30
2019-01-24T13:08:12.995Z,0.30
2019-01-24T13:10:45.603Z,0.40
2019-01-24T13:13:14.075Z,0.40
2019-01-24T13:15:42.804Z,0.30
2019-01-24T13:18:11.409Z,0.30
2019-01-24T13:20:40.073Z,0.20
2019-01-24T13:23:08.631Z,0.20
2019-01-24T13:25:41.294Z,0.10
2019-01-24T13:28:09.958Z,0.10
2019-01-24T13:30:38.527Z,0.00
2019-01-24T13:33:07.756Z,0.00
2019-01-24T13:35:36.344Z,-0.10
2019-01-24T13:38:05.642Z,-0.10
2019-01-24T13:40:34.195Z,-0.10
2019-01-24T13:43:02.944Z,-0.10
2019-01-24T13:45:33.639Z,-0.10
2019-01-24T13:48:02.444Z,-0.20
2019-01-24T13:50:31.099Z,-0.30
2019-01-24T13:52:59.673Z,-0.30
2019-01-24T13:55:29.757Z,-0.30
2019-01-24T13:57:58.423Z,-0.20
2019-01-24T14:00:32.699Z,-0.20
2019-01-24T14:03:18.713Z,-0.10
2019-01-24T14:05:47.275Z,-0.10
2019-01-24T14:08:15.854Z,-0.10
2019-01-24T14:10:44.507Z,-0.10
2019-01-24T14:13:13.142Z,-0.10
2019-01-24T14:15:41.733Z,-0.10
2019-01-24T14:18:13.932Z,-0.10
2019-01-24T14:20:42.525Z,-0.10
2019-01-24T14:23:11.102Z,-0.20
2019-01-24T14:25:39.659Z,-0.20
2019-01-24T14:28:11.191Z,-0.30
2019-01-24T14:30:39.904Z,-0.40
2019-01-24T14:33:11.042Z,-0.40
2019-01-24T14:35:43.764Z,-0.30
2019-01-24T14:38:12.449Z,-0.30
2019-01-24T14:40:41.558Z,-0.30
2019-01-24T14:43:13.133Z,-0.30
2019-01-24T14:45:41.690Z,-0.30
2019-01-24T14:48:10.260Z,-0.30
2019-01-24T14:50:38.834Z,-0.40
2019-01-24T14:53:10.646Z,-0.50
2019-01-24T14:55:39.216Z,-0.40
2019-01-24T14:58:07.878Z,-0.40
2019-01-24T15:00:39.389Z,-0.40
2019-01-24T15:03:08.898Z,-0.40
2019-01-24T15:05:37.519Z,-0.40
2019-01-24T15:08:06.648Z,-0.40
2019-01-24T15:10:35.723Z,-0.50
2019-01-24T15:13:05.656Z,-0.50
2019-01-24T15:15:34.783Z,-0.50
2019-01-24T15:18:09.177Z,-0.40
2019-01-24T15:20:37.816Z,-0.40
2019-01-24T15:23:09.305Z,-0.40
2019-01-24T15:25:37.951Z,-0.40
2019-01-24T15:28:07.481Z,-0.40
2019-01-24T15:30:42.306Z,-0.40
2019-01-24T15:33:12.522Z,-0.40
2019-01-24T15:35:42.485Z,-0.40
2019-01-24T15:38:12.612Z,-0.40
2019-01-24T15:40:41.243Z,-0.50
2019-01-24T15:45:50.272Z,-0.60
2019-01-24T15:48:18.862Z,-0.60
2019-01-24T15:50:47.422Z,-0.60
2019-01-24T15:53:16.147Z,-0.60
2019-01-24T15:55:48.379Z,-0.70
2019-01-24T15:58:17.064Z,-0.80
2019-01-24T16:00:45.622Z,-0.80
2019-01-24T16:03:17.242Z,-0.90
2019-01-24T16:05:45.862Z,-0.90
2019-01-24T16:08:17.954Z,-0.90
2019-01-24T16:10:46.273Z,-0.90
2019-01-24T16:13:17.692Z,-0.90
2019-01-24T16:15:46.257Z,-0.90
2019-01-24T16:18:16.421Z,-0.90
2019-01-24T16:20:47.826Z,-0.90
2019-01-24T16:23:16.325Z,-0.90
2019-01-24T16:25:47.446Z,-0.90
2019-01-24T16:28:15.728Z,-0.90
2019-01-24T16:30:44.410Z,-1.00
2019-01-24T16:33:15.706Z,-1.00
2019-01-24T16:35:44.405Z,-1.00
2019-01-24T16:38:13.076Z,-1.10
2019-01-24T16:40:42.034Z,-1.10
2019-01-24T16:43:10.588Z,-1.10
2019-01-24T16:45:39.154Z,-1.10
2019-01-24T16:48:07.911Z,-1.10
2019-01-24T16:50:36.564Z,-1.00
2019-01-24T16:53:05.382Z,-1.00
2019-01-24T16:55:34.330Z,-1.00
2019-01-24T16:58:09.282Z,-1.10
2019-01-24T17:00:41.302Z,-1.10
2019-01-24T17:03:09.940Z,-1.10
2019-01-24T17:05:39.094Z,-1.20
2019-01-24T17:08:08.147Z,-1.20
2019-01-24T17:10:39.268Z,-1.30
2019-01-24T17:13:07.992Z,-1.30
2019-01-24T17:15:36.538Z,-1.30
2019-01-24T17:18:05.436Z,-1.30
2019-01-24T17:20:34.164Z,-1.30
2019-01-24T17:23:02.786Z,-1.30
2019-01-24T17:25:39.681Z,-1.30
2019-01-24T17:28:11.392Z,-1.30
2019-01-24T17:30:40.136Z,-1.30
2019-01-24T17:33:08.771Z,-1.30
2019-01-24T17:35:37.438Z,-1.20
2019-01-24T17:38:06.138Z,-1.20
2019-01-24T17:40:35.679Z,-1.20
2019-01-24T17:43:07.316Z,-1.20
2019-01-24T17:45:35.962Z,-1.20
2019-01-24T17:48:08.409Z,-1.10
2019-01-24T17:50:37.458Z,-1.10
2019-01-24T17:53:06.123Z,-1.10
2019-01-24T17:55:37.155Z,-1.20
2019-01-24T17:58:07.729Z,-1.20
2019-01-24T18:00:40.164Z,-1.30
2019-01-24T18:03:11.182Z,-1.40
2019-01-24T18:05:41.364Z,-1.40
2019-01-24T18:08:12.795Z,-1.40
2019-01-24T18:10:41.501Z,-1.50
2019-01-24T18:13:10.096Z,-1.50
2019-01-24T18:15:40.351Z,-1.50
2019-01-24T18:18:11.735Z,-1.50
2019-01-24T18:20:40.385Z,-1.50
2019-01-24T18:23:10.180Z,-1.40
2019-01-24T18:25:38.941Z,-1.40
2019-01-24T18:28:09.676Z,-1.50
2019-01-24T18:30:41.158Z,-1.50
2019-01-24T18:33:10.025Z,-1.40
2019-01-24T18:35:38.663Z,-1.40
2019-01-24T18:38:07.425Z,-1.40
2019-01-24T18:40:36.459Z,-1.50
2019-01-24T18:43:07.650Z,-1.50
2019-01-24T18:45:52.323Z,-1.60
2019-01-24T18:48:21.027Z,-1.60
2019-01-24T18:50:49.938Z,-1.70
2019-01-24T18:53:18.522Z,-1.70
2019-01-24T18:55:47.080Z,-1.70
2019-01-24T18:58:15.778Z,-1.80
2019-01-24T19:00:45.334Z,-1.80
2019-01-24T19:03:14.142Z,-1.80
2019-01-24T19:05:42.865Z,-1.70
2019-01-24T19:08:11.521Z,-1.70
2019-01-24T19:10:40.178Z,-1.70
2019-01-24T19:13:08.971Z,-1.70
2019-01-24T19:15:37.651Z,-1.70
2019-01-24T19:18:07.155Z,-1.70
2019-01-24T19:20:35.974Z,-1.70
2019-01-24T19:23:04.817Z,-1.70
2019-01-24T19:25:33.527Z,-1.70
2019-01-24T19:28:02.201Z,-1.70
2019-01-24T19:30:34.242Z,-1.70
2019-01-24T19:33:04.455Z,-1.70
2019-01-24T19:35:33.040Z,-1.80
2019-01-24T19:38:01.698Z,-1.80
2019-01-24T19:40:31.995Z,-1.70
2019-01-24T19:43:00.602Z,-1.70
2019-01-24T19:45:29.693Z,-1.60
2019-01-24T19:47:58.320Z,-1.60
2019-01-24T19:50:29.073Z,-1.60
2019-01-24T19:52:58.808Z,-1.60
2019-01-24T19:55:27.577Z,-1.60
2019-01-24T19:57:56.719Z,-1.60
2019-01-24T20:00:28.358Z,-1.60
2019-01-24T20:02:57.414Z,-1.60
2019-01-24T20:05:26.142Z,-1.60
2019-01-24T20:07:57.693Z,-1.70
2019-01-24T20:10:30.018Z,-1.70
2019-01-24T20:13:01.379Z,-1.80
2019-01-24T20:15:33.806Z,-1.80
2019-01-24T20:18:09.281Z,-1.80
2019-01-24T20:20:46.179Z,-1.80
2019-01-24T20:23:15.070Z,-1.70
2019-01-24T20:25:43.771Z,-1.70
2019-01-24T20:28:12.427Z,-1.70
2019-01-24T20:30:41.274Z,-1.70
2019-01-24T20:33:09.847Z,-1.70
2019-01-24T20:35:44.807Z,-1.80
2019-01-24T20:38:13.452Z,-1.80
2019-01-24T20:40:42.019Z,-1.80
2019-01-24T20:43:12.074Z,-1.80
2019-01-24T20:45:41.094Z,-1.80
2019-01-24T20:48:09.840Z,-1.80
2019-01-24T20:50:38.489Z,-1.80
2019-01-24T20:53:09.389Z,-1.70
2019-01-24T20:55:38.163Z,-1.70
2019-01-24T20:58:06.902Z,-1.80
2019-01-24T21:00:35.711Z,-1.80
2019-01-24T21:03:04.508Z,-1.90
2019-01-24T21:05:33.386Z,-2.00
2019-01-24T21:08:01.958Z,-2.10
2019-01-24T21:10:30.975Z,-2.20
2019-01-24T21:12:59.538Z,-2.20
2019-01-24T21:15:28.252Z,-2.20
2019-01-24T21:17:56.869Z,-2.20
2019-01-24T21:20:30.310Z,-2.20
2019-01-24T21:23:01.794Z,-2.30
2019-01-24T21:25:30.647Z,-2.30
2019-01-24T21:27:59.317Z,-2.30
2019-01-24T21:30:30.477Z,-2.30
2019-01-24T21:32:59.196Z,-2.20
2019-01-24T21:35:28.466Z,-2.30
2019-01-24T21:37:57.928Z,-2.30
2019-01-24T21:40:26.679Z,-2.20
2019-01-24T21:42:55.297Z,-2.20
2019-01-24T21:45:29.154Z,-2.20
2019-01-24T21:47:57.877Z,-2.20
2019-01-24T21:50:28.778Z,-2.20
2019-01-24T21:52:57.700Z,-2.20
2019-01-24T21:55:26.374Z,-2.20
2019-01-24T21:57:55.131Z,-2.20
2019-01-24T22:00:25.747Z,-2.20
2019-01-24T22:02:54.446Z,-2.20
2019-01-24T22:05:23.480Z,-2.20
2019-01-24T22:07:52.945Z,-2.30
2019-01-24T22:10:26.871Z,-2.20
2019-01-24T22:12:55.541Z,-2.30
2019-01-24T22:15:26.343Z,-2.40
2019-01-24T22:17:55.189Z,-2.40
2019-01-24T22:20:37.565Z,-2.40
2019-01-24T22:23:06.427Z,-2.30
2019-01-24T22:25:35.463Z,-2.40
2019-01-24T22:28:05.018Z,-2.50
2019-01-24T22:30:40.851Z,-2.50
2019-01-24T22:33:12.578Z,-2.50
2019-01-24T22:35:41.437Z,-2.40
2019-01-24T22:38:10.114Z,-2.40
2019-01-24T22:40:38.667Z,-2.50
2019-01-24T22:43:07.635Z,-2.40
2019-01-24T22:45:36.311Z,-2.40
2019-01-24T22:48:06.122Z,-2.40
2019-01-24T22:50:34.713Z,-2.40
2019-01-24T22:53:07.811Z,-2.30
2019-01-24T22:55:36.073Z,-2.30
2019-01-24T22:58:08.820Z,-2.30
2019-01-24T23:00:54.337Z,-2.30
2019-01-24T23:03:28.922Z,-2.30
2019-01-24T23:05:57.583Z,-2.30
2019-01-24T23:08:26.133Z,-2.30
2019-01-24T23:10:54.876Z,-2.30
2019-01-24T23:13:25.968Z,-2.40
2019-01-24T23:15:54.588Z,-2.30
2019-01-24T23:18:24.823Z,-2.40
2019-01-24T23:20:53.408Z,-2.50
2019-01-24T23:23:23.776Z,-2.60
2019-01-24T23:25:52.362Z,-2.70
2019-01-24T23:28:21.377Z,-2.60
2019-01-24T23:30:49.989Z,-2.60
2019-01-24T23:33:18.689Z,-2.70
2019-01-24T23:35:47.785Z,-2.70
2019-01-24T23:38:16.399Z,-2.70
2019-01-24T23:40:44.954Z,-2.60
2019-01-24T23:43:13.627Z,-2.60
2019-01-24T23:45:42.235Z,-2.60
2019-01-24T23:48:10.856Z,-2.60
2019-01-24T23:50:39.500Z,-2.70
2019-01-24T23:53:08.138Z,-2.70
2019-01-24T23:55:36.713Z,-2.70
2019-01-24T23:58:05.429Z,-2.70
